Time;durP1;ratioP1;P1;durP2;ratioP2;P2;SDS_P1;SDS_P2;PMS_P1;PMS_P2;Temp;Humidity;BMP_temperature;BMP_pressure;BME280_temperature;BME280_humidity;BME280_pressure;Samples;Min_cycle;Max_cycle;Signal;HPM_P1;HPM_P2
2023/06/19 00:02:09;;;;;;;10.82;3.00;;;;;;;16.65;100.00;99459.41;4969900;28;20038;-79
2023/06/19 00:04:35;;;;;;;9.30;2.75;;;;;;;16.65;100.00;99452.22;5002929;28;20062;-79
2023/06/19 00:07:01;;;;;;;15.23;3.28;;;;;;;16.74;100.00;99455.47;4966749;28;20500;-79
2023/06/19 00:09:27;;;;;;;12.30;3.10;;;;;;;16.79;100.00;99462.84;4996314;28;20030;-80
2023/06/19 00:11:52;;;;;;;10.50;3.22;;;;;;;16.80;100.00;99462.66;4967690;28;20485;-79
2023/06/19 00:14:18;;;;;;;8.57;3.30;;;;;;;16.82;100.00;99468.59;4946510;28;20782;-80
2023/06/19 00:16:45;;;;;;;12.82;3.22;;;;;;;16.85;100.00;99464.72;4972609;28;20034;-79
2023/06/19 00:19:12;;;;;;;9.00;3.08;;;;;;;16.82;100.00;99462.44;4944894;28;20030;-79
2023/06/19 00:21:38;;;;;;;13.63;3.70;;;;;;;16.87;100.00;99465.31;4986432;28;20077;-79
2023/06/19 00:24:05;;;;;;;8.95;3.90;;;;;;;16.87;100.00;99465.31;4973592;28;20039;-79
2023/06/19 00:26:30;;;;;;;5.75;2.95;;;;;;;16.85;100.00;99467.38;4976376;28;20034;-80
2023/06/19 00:28:56;;;;;;;7.88;3.08;;;;;;;16.85;100.00;99462.03;4987221;28;20041;-80
2023/06/19 00:31:22;;;;;;;8.35;2.88;;;;;;;16.80;100.00;99453.84;4986923;28;20057;-79
2023/06/19 00:33:49;;;;;;;8.70;3.38;;;;;;;16.71;100.00;99459.41;5001337;28;20361;-80
2023/06/19 00:36:19;;;;;;;5.40;3.00;;;;;;;16.67;100.00;99457.34;4968190;28;20034;-79
2023/06/19 00:38:46;;;;;;;5.60;2.42;;;;;;;16.59;100.00;99455.75;4961288;28;20097;-80
2023/06/19 00:41:12;;;;;;;8.20;2.80;;;;;;;16.52;100.00;99450.41;4983037;28;20034;-80
2023/06/19 00:43:41;;;;;;;10.10;3.13;;;;;;;16.48;100.00;99455.34;4980273;28;20400;-80
2023/06/19 00:46:07;;;;;;;10.93;3.20;;;;;;;16.36;100.00;99449.00;4968937;28;20038;-79
2023/06/19 00:48:34;;;;;;;15.02;3.55;;;;;;;16.27;100.00;99455.56;4982913;28;20033;-79
2023/06/19 00:51:00;;;;;;;7.75;3.30;;;;;;;16.10;100.00;99458.66;4952914;28;20534;-79
2023/06/19 00:53:26;;;;;;;9.52;3.55;;;;;;;16.07;100.00;99440.44;4972438;28;20057;-79
2023/06/19 00:55:54;;;;;;;17.15;2.90;;;;;;;16.11;100.00;99447.81;4985206;28;20046;-79
2023/06/19 00:58:21;;;;;;;6.38;2.83;;;;;;;16.18;100.00;99438.97;4989021;28;20060;-82
2023/06/19 01:00:48;;;;;;;7.38;3.45;;;;;;;16.24;100.00;99433.63;4990219;28;20030;-82
2023/06/19 01:03:14;;;;;;;12.52;3.00;;;;;;;16.31;100.00;99427.50;4975117;28;20488;-82
2023/06/19 01:05:41;;;;;;;9.23;3.40;;;;;;;16.34;100.00;99424.41;4976933;28;20042;-81
2023/06/19 01:08:10;;;;;;;6.28;2.97;;;;;;;16.37;100.00;99434.66;5011590;28;20041;-78
2023/06/19 01:10:44;;;;;;;7.88;3.22;;;;;;;16.42;100.00;99429.50;4975190;28;20399;-79
2023/06/19 01:13:21;;;;;;;12.63;3.67;;;;;;;16.44;100.00;99427.44;4976740;28;20057;-77
2023/06/19 01:15:50;;;;;;;9.05;3.20;;;;;;;16.42;100.00;99429.50;4999789;28;20033;-79
2023/06/19 01:18:17;;;;;;;7.82;2.55;;;;;;;16.44;100.00;99423.94;4988375;28;20088;-80
2023/06/19 01:20:43;;;;;;;7.97;3.60;;;;;;;16.44;100.00;99418.63;4959478;28;20041;-79
2023/06/19 01:23:11;;;;;;;11.73;3.50;;;;;;;16.46;100.00;99420.06;4955052;28;20148;-79
2023/06/19 01:25:39;;;;;;;7.93;3.47;;;;;;;16.44;100.00;99422.13;4993240;28;20030;-79
2023/06/19 01:28:09;;;;;;;9.85;3.25;;;;;;;16.49;100.00;99424.97;4975325;28;20040;-79
2023/06/19 01:30:35;;;;;;;13.20;3.28;;;;;;;16.46;100.00;99421.91;4974064;28;20053;-79
2023/06/19 01:33:26;;;;;;;6.97;3.42;;;;;;;16.44;100.00;99419.44;4982230;28;20076;-79
2023/06/19 01:35:52;;;;;;;7.38;2.92;;;;;;;16.38;100.00;99422.94;4970117;28;20041;-78
2023/06/19 01:38:25;;;;;;;7.78;3.17;;;;;;;16.40;100.00;99423.56;4976748;28;20557;-79
2023/06/19 01:40:54;;;;;;;6.28;2.83;;;;;;;16.37;100.00;99419.44;4985199;28;20192;-79
2023/06/19 01:43:20;;;;;;;11.63;2.67;;;;;;;16.36;100.00;99422.31;4981784;28;20096;-79
2023/06/19 01:45:46;;;;;;;6.53;3.40;;;;;;;16.33;100.00;99422.75;4988763;28;20136;-79
2023/06/19 01:48:14;;;;;;;9.20;3.50;;;;;;;16.34;100.00;99413.75;5008373;28;20101;-79
2023/06/19 01:50:45;;;;;;;6.95;3.20;;;;;;;16.28;100.00;99425.22;4947701;28;20042;-78
2023/06/19 01:53:11;;;;;;;12.95;3.45;;;;;;;16.25;100.00;99415.78;4972218;28;20420;-79
2023/06/19 01:55:37;;;;;;;7.88;3.03;;;;;;;16.24;100.00;99417.63;4952423;28;20031;-80
2023/06/19 01:58:03;;;;;;;6.95;2.47;;;;;;;16.23;100.00;99416.00;4972279;28;20044;-79
2023/06/19 02:00:32;;;;;;;4.53;2.50;;;;;;;16.19;100.00;99421.94;4975128;28;20030;-79
2023/06/19 02:02:57;;;;;;;6.05;2.85;;;;;;;16.16;100.00;99423.19;4975724;28;20484;-79
2023/06/19 02:05:23;;;;;;;7.03;3.05;;;;;;;16.15;100.00;99418.88;4984259;28;20037;-79
2023/06/19 02:07:49;;;;;;;4.20;2.20;;;;;;;16.14;100.00;99421.75;4948034;28;20041;-79
2023/06/19 02:10:15;;;;;;;5.07;2.47;;;;;;;16.06;100.00;99410.28;4973370;28;20045;-80
2023/06/19 02:12:41;;;;;;;7.40;2.70;;;;;;;16.06;100.00;99404.94;4945307;28;20038;-82
2023/06/19 02:15:07;;;;;;;3.13;2.15;;;;;;;16.05;100.00;99407.81;4983534;28;20038;-83
2023/06/19 02:17:33;;;;;;;7.22;2.88;;;;;;;15.99;100.00;99402.28;4973274;28;20030;-79
2023/06/19 02:19:59;;;;;;;3.13;2.42;;;;;;;16.01;100.00;99409.25;4986932;28;20507;-79
2023/06/19 02:22:25;;;;;;;7.43;3.13;;;;;;;15.97;100.00;99399.00;4959487;28;20038;-80
2023/06/19 02:24:53;;;;;;;12.50;3.45;;;;;;;15.91;100.00;99402.44;4971141;28;20489;-79
2023/06/19 02:27:19;;;;;;;12.95;3.80;;;;;;;15.81;100.00;99399.38;4964043;28;20041;-79
2023/06/19 02:29:45;;;;;;;11.00;4.20;;;;;;;15.70;100.00;99398.97;4974011;28;20041;-79
2023/06/19 02:32:11;;;;;;;5.80;3.55;;;;;;;15.60;100.00;99401.22;4973822;28;20042;-79
2023/06/19 02:34:37;;;;;;;12.68;3.67;;;;;;;15.58;100.00;99403.25;4986160;28;20556;-79
2023/06/19 02:37:05;;;;;;;9.95;3.53;;;;;;;15.62;100.00;99407.97;4974783;28;20171;-80
2023/06/19 02:39:32;;;;;;;6.72;3.08;;;;;;;15.65;100.00;99409.44;4954706;28;20492;-79
2023/06/19 02:41:58;;;;;;;6.45;3.00;;;;;;;15.67;100.00;99410.03;4972475;28;20046;-79
2023/06/19 02:44:28;;;;;;;6.50;3.08;;;;;;;15.68;100.00;99409.00;4977728;28;20532;-79
2023/06/19 02:46:53;;;;;;;6.20;2.83;;;;;;;15.65;100.00;99412.09;4939891;28;20531;-79
2023/06/19 02:49:19;;;;;;;9.82;3.15;;;;;;;15.63;100.00;99416.78;4973352;28;20038;-79
2023/06/19 02:51:45;;;;;;;9.50;3.30;;;;;;;15.62;100.00;99409.84;4958060;28;20045;-79
2023/06/19 02:54:11;;;;;;;8.65;3.08;;;;;;;15.60;100.00;99404.72;4957763;28;20030;-80
2023/06/19 02:56:38;;;;;;;7.07;3.80;;;;;;;15.58;100.00;99406.75;4993345;28;20048;-76
2023/06/19 02:59:04;;;;;;;6.18;3.00;;;;;;;15.55;100.00;99403.66;4960880;28;20092;-80
2023/06/19 03:01:30;;;;;;;5.30;2.40;;;;;;;15.56;100.00;99407.97;4977194;28;20128;-79
2023/06/19 03:03:56;;;;;;;5.60;2.90;;;;;;;15.54;100.00;99412.69;4976930;28;20034;-79
2023/06/19 03:06:22;;;;;;;9.73;2.60;;;;;;;15.52;100.00;99404.91;4976640;28;20057;-79
2023/06/19 03:08:47;;;;;;;4.25;2.63;;;;;;;15.55;100.00;99403.66;5007363;28;20038;-79
2023/06/19 03:11:13;;;;;;;5.22;2.00;;;;;;;15.54;100.00;99402.84;4961992;28;20034;-79
2023/06/19 03:13:48;;;;;;;14.23;3.47;;;;;;;15.58;100.00;99404.09;5007706;28;20068;-78
2023/06/19 03:16:17;;;;;;;9.15;3.60;;;;;;;15.53;100.00;99406.53;4958621;28;20066;-78
2023/06/19 03:18:46;;;;;;;8.10;3.28;;;;;;;15.53;100.00;99406.53;5008446;28;20076;-79
2023/06/19 03:21:14;;;;;;;8.85;3.35;;;;;;;15.44;100.00;99400.59;4975221;28;20042;-79
2023/06/19 03:23:41;;;;;;;8.25;3.90;;;;;;;15.38;100.00;99401.41;4949427;28;20169;-79
2023/06/19 03:26:08;;;;;;;7.22;3.30;;;;;;;15.35;100.00;99399.94;4978102;28;20042;-80
2023/06/19 03:28:36;;;;;;;13.27;4.30;;;;;;;15.33;100.00;99411.81;5009962;28;20507;-78
2023/06/19 03:31:03;;;;;;;10.77;3.80;;;;;;;15.33;100.00;99412.66;4958011;28;20559;-80
2023/06/19 03:33:29;;;;;;;12.68;3.63;;;;;;;15.31;100.00;99414.69;4976532;28;20037;-79
2023/06/19 03:35:55;;;;;;;7.65;3.50;;;;;;;15.27;100.00;99416.13;4976099;28;20096;-80
2023/06/19 03:38:44;;;;;;;7.22;3.40;;;;;;;15.22;100.00;99416.72;4971132;28;20500;-79
2023/06/19 03:41:13;;;;;;;8.45;3.58;;;;;;;15.13;100.00;99408.09;4972322;28;20062;-79
2023/06/19 03:43:39;;;;;;;8.40;3.58;;;;;;;15.11;100.00;99422.63;4992224;28;20069;-79
2023/06/19 03:46:05;;;;;;;15.50;3.90;;;;;;;15.13;100.00;99413.41;4989361;28;20651;-79
2023/06/19 03:48:31;;;;;;;9.75;3.42;;;;;;;15.19;100.00;99419.78;4981174;28;20037;-79
2023/06/19 03:50:56;;;;;;;7.78;3.47;;;;;;;15.20;100.00;99425.91;4989697;28;20113;-79
2023/06/19 03:53:22;;;;;;;6.25;3.05;;;;;;;15.19;100.00;99422.44;4992437;28;20076;-79
2023/06/19 03:55:48;;;;;;;8.48;3.05;;;;;;;15.18;100.00;99426.13;4959013;28;20034;-78
2023/06/19 03:58:14;;;;;;;11.18;3.58;;;;;;;15.19;100.00;99427.78;4992871;28;20033;-79
2023/06/19 04:00:41;;;;;;;13.13;4.07;;;;;;;15.19;100.00;99421.63;4988927;28;20397;-80
2023/06/19 04:03:09;;;;;;;6.60;3.45;;;;;;;15.17;100.00;99424.47;4986929;28;20270;-79
2023/06/19 04:05:35;;;;;;;14.90;3.42;;;;;;;15.22;100.00;99421.22;4992406;28;20571;-79
2023/06/19 04:08:00;;;;;;;10.65;3.78;;;;;;;15.18;100.00;99427.97;4951145;28;20172;-79
2023/06/19 04:10:26;;;;;;;6.00;3.03;;;;;;;15.13;100.00;99424.06;4975795;28;20469;-80
2023/06/19 04:12:55;;;;;;;5.30;2.95;;;;;;;15.11;100.00;99425.28;4993587;28;20044;-79
2023/06/19 04:15:22;;;;;;;11.63;2.83;;;;;;;15.07;100.00;99427.50;4977232;28;20407;-79
2023/06/19 04:17:48;;;;;;;6.97;3.63;;;;;;;14.95;100.00;99431.78;4992350;28;20113;-78
2023/06/19 04:20:14;;;;;;;9.40;3.22;;;;;;;14.87;100.00;99430.09;4965423;28;20116;-79
2023/06/19 04:22:41;;;;;;;12.43;3.90;;;;;;;14.80;100.00;99431.88;4985786;28;20100;-79
2023/06/19 04:25:08;;;;;;;10.38;3.72;;;;;;;14.72;100.00;99432.84;4992828;28;20038;-79
2023/06/19 04:27:34;;;;;;;9.82;3.30;;;;;;;14.68;100.00;99437.75;4963049;28;20396;-79
2023/06/19 04:30:01;;;;;;;9.40;3.33;;;;;;;14.70;100.00;99440.22;4957544;28;20096;-78
2023/06/19 04:32:27;;;;;;;6.85;3.28;;;;;;;14.68;100.00;99436.94;4997921;28;20482;-79
2023/06/19 04:34:53;;;;;;;15.15;4.40;;;;;;;14.67;100.00;99433.44;4989469;28;20113;-78
2023/06/19 04:37:19;;;;;;;7.07;3.45;;;;;;;14.70;100.00;99438.38;4988118;28;20072;-78
2023/06/19 04:39:46;;;;;;;7.82;3.30;;;;;;;14.72;100.00;99436.34;4992848;28;20377;-78
2023/06/19 04:42:20;;;;;;;9.27;3.35;;;;;;;14.73;100.00;99443.28;4993768;28;20026;-78
2023/06/19 04:44:47;;;;;;;5.60;3.72;;;;;;;14.67;100.00;99438.75;5003942;28;20545;-79
2023/06/19 04:47:13;;;;;;;7.57;3.30;;;;;;;14.69;100.00;99441.22;4993022;28;20395;-79
2023/06/19 04:49:39;;;;;;;12.00;3.50;;;;;;;14.67;100.00;99440.63;4982971;28;20042;-78
2023/06/19 04:52:05;;;;;;;7.75;3.10;;;;;;;14.67;100.00;99443.28;4990037;28;20045;-81
2023/06/19 04:54:34;;;;;;;8.13;3.10;;;;;;;14.69;100.00;99443.88;5002909;28;20645;-80
2023/06/19 04:57:01;;;;;;;8.45;2.80;;;;;;;14.65;100.00;99443.47;4947595;28;20522;-80
2023/06/19 04:59:27;;;;;;;6.72;3.25;;;;;;;14.65;100.00;99438.16;4941377;28;20038;-79
2023/06/19 05:01:54;;;;;;;8.35;3.33;;;;;;;14.63;100.00;99441.00;4962056;28;20146;-80
2023/06/19 05:04:22;;;;;;;3.45;2.38;;;;;;;14.59;100.00;99442.41;4979371;28;20064;-80
2023/06/19 05:06:48;;;;;;;3.95;2.28;;;;;;;14.56;100.00;99448.09;4975417;28;20047;-81
2023/06/19 05:09:14;;;;;;;5.97;2.35;;;;;;;14.51;100.00;99453.19;4964518;28;20062;-79
2023/06/19 05:11:40;;;;;;;4.53;1.85;;;;;;;14.48;100.00;99450.91;4957618;28;20062;-78
2023/06/19 05:14:06;;;;;;;4.13;2.30;;;;;;;14.48;100.00;99457.06;4967121;28;20451;-83
2023/06/19 05:16:33;;;;;;;2.97;2.42;;;;;;;14.52;100.00;99455.66;4981065;28;20035;-82
2023/06/19 05:18:59;;;;;;;11.65;2.83;;;;;;;14.55;100.00;99456.28;4955287;28;20061;-79
2023/06/19 05:21:24;;;;;;;7.82;3.20;;;;;;;14.60;100.00;99459.19;4961446;28;20496;-79
2023/06/19 05:23:52;;;;;;;5.55;2.67;;;;;;;14.64;100.00;99457.78;4964145;28;20034;-80
2023/06/19 05:26:19;;;;;;;5.15;2.95;;;;;;;14.69;100.00;99451.84;4963144;28;20034;-79
2023/06/19 05:28:46;;;;;;;5.75;3.05;;;;;;;14.76;100.00;99461.50;4983746;28;20038;-83
2023/06/19 05:31:12;;;;;;;7.72;3.72;;;;;;;14.82;100.00;99453.81;4958914;28;20034;-83
2023/06/19 05:33:38;;;;;;;7.57;3.45;;;;;;;14.86;100.00;99450.56;4950838;28;20037;-80
2023/06/19 05:36:04;;;;;;;6.00;3.28;;;;;;;14.85;100.00;99454.25;4988257;28;20026;-79
2023/06/19 05:38:30;;;;;;;10.88;3.72;;;;;;;14.84;100.00;99447.25;4978742;28;20039;-79
2023/06/19 05:40:57;;;;;;;9.57;3.50;;;;;;;14.84;100.00;99451.78;4979621;28;20121;-79
2023/06/19 05:43:24;;;;;;;11.60;3.85;;;;;;;14.81;100.00;99445.00;4965608;28;20046;-80
2023/06/19 05:45:51;;;;;;;8.02;3.63;;;;;;;14.82;100.00;99448.47;4943602;28;20384;-80
2023/06/19 05:48:16;;;;;;;5.82;3.42;;;;;;;14.80;100.00;99443.38;4957429;28;20062;-80
2023/06/19 05:50:42;;;;;;;8.55;3.75;;;;;;;14.77;100.00;99438.41;4961287;28;20064;-79
2023/06/19 05:53:08;;;;;;;10.43;3.85;;;;;;;14.79;100.00;99447.06;4990467;28;20046;-80
2023/06/19 05:55:34;;;;;;;4.72;3.60;;;;;;;14.79;100.00;99443.53;4975106;28;20050;-80
2023/06/19 05:58:00;;;;;;;9.02;3.70;;;;;;;14.80;100.00;99451.34;4979101;28;20050;-79
2023/06/19 06:00:27;;;;;;;9.98;3.55;;;;;;;14.80;100.00;99448.69;4959705;28;20041;-79
2023/06/19 06:02:53;;;;;;;8.20;3.40;;;;;;;14.80;100.00;99451.34;4993322;28;20034;-80
2023/06/19 06:05:20;;;;;;;6.78;3.28;;;;;;;14.84;100.00;99457.09;4991331;28;20041;-80
2023/06/19 06:07:46;;;;;;;8.38;3.15;;;;;;;14.95;100.00;99461.03;4978535;28;20033;-79
2023/06/19 06:10:12;;;;;;;8.25;3.35;;;;;;;14.97;100.00;99451.81;4973239;28;22024;-79
2023/06/19 06:12:38;;;;;;;11.20;3.65;;;;;;;15.10;100.00;99458.22;4990984;28;20033;-79
2023/06/19 06:15:05;;;;;;;8.38;3.05;;;;;;;15.16;100.00;99456.63;5003036;28;20037;-78
2023/06/19 06:17:31;;;;;;;8.02;3.42;;;;;;;15.19;100.00;99450.91;4991337;28;20088;-79
2023/06/19 06:19:57;;;;;;;7.32;3.22;;;;;;;15.22;100.00;99464.63;4981876;28;20080;-80
2023/06/19 06:22:23;;;;;;;7.55;3.58;;;;;;;15.24;100.00;99457.25;5007951;28;20080;-80
2023/06/19 06:24:48;;;;;;;9.95;4.90;;;;;;;15.27;100.00;99460.53;4962362;28;20049;-81
2023/06/19 06:27:14;;;;;;;9.93;3.65;;;;;;;15.28;100.00;99463.00;4976732;28;20041;-80
2023/06/19 06:29:40;;;;;;;8.52;3.72;;;;;;;15.38;100.00;99459.97;5004461;28;20632;-80
2023/06/19 06:32:07;;;;;;;9.13;3.65;;;;;;;15.52;100.00;99460.00;4961743;28;20034;-82
2023/06/19 06:34:36;;;;;;;7.75;3.00;;;;;;;15.61;100.00;99470.25;4993655;28;20032;-82
2023/06/19 06:37:02;;;;;;;5.32;2.55;;;;;;;15.65;100.00;99464.53;4974072;28;20400;-79
2023/06/19 06:39:28;;;;;;;4.18;2.38;;;;;;;15.66;100.00;99466.16;4979105;28;20029;-80
2023/06/19 06:41:54;;;;;;;8.88;3.05;;;;;;;15.69;100.00;99463.94;4992166;28;20045;-80
2023/06/19 06:44:20;;;;;;;8.90;2.88;;;;;;;15.70;100.00;99468.22;4957401;28;20050;-79
2023/06/19 06:46:46;;;;;;;9.38;2.20;;;;;;;15.77;100.00;99457.59;4968306;28;20065;-79
2023/06/19 06:49:12;;;;;;;6.55;2.42;;;;;;;15.82;100.00;99464.97;4971721;28;20068;-80
2023/06/19 06:51:38;;;;;;;5.35;3.13;;;;;;;15.85;100.00;99464.56;4977583;28;20034;-80
2023/06/19 06:54:03;;;;;;;5.13;2.58;;;;;;;15.85;100.00;99456.56;4989185;28;20142;-80
2023/06/19 06:56:30;;;;;;;6.75;2.33;;;;;;;15.87;100.00;99459.84;4972380;28;20034;-80
2023/06/19 06:58:56;;;;;;;7.35;3.17;;;;;;;15.90;100.00;99471.94;4970015;28;20034;-80
2023/06/19 07:01:22;;;;;;;7.15;2.63;;;;;;;15.95;100.00;99472.16;4985906;28;20046;-80
2023/06/19 07:03:47;;;;;;;6.22;2.67;;;;;;;15.98;100.00;99475.28;4954149;28;20038;-80
2023/06/19 07:06:13;;;;;;;7.78;2.28;;;;;;;15.99;100.00;99468.91;4969292;28;20089;-79
2023/06/19 07:08:40;;;;;;;6.05;2.25;;;;;;;15.97;100.00;99475.44;4985539;28;20038;-80
2023/06/19 07:11:07;;;;;;;6.03;2.20;;;;;;;15.98;100.00;99480.59;4917486;28;20366;-80
2023/06/19 07:13:33;;;;;;;5.38;2.20;;;;;;;16.02;100.00;99490.84;4984288;28;20068;-80
2023/06/19 07:16:01;;;;;;;9.95;2.40;;;;;;;16.03;100.00;99485.31;4957756;28;20074;-79
2023/06/19 07:18:27;;;;;;;7.00;2.33;;;;;;;16.07;100.00;99485.75;4973492;28;20065;-79
2023/06/19 07:20:53;;;;;;;7.32;2.35;;;;;;;16.17;100.00;99486.13;4957385;28;20042;-79
2023/06/19 07:23:19;;;;;;;6.57;2.17;;;;;;;16.37;100.00;99493.31;4970663;28;20041;-80
2023/06/19 07:25:46;;;;;;;7.88;2.28;;;;;;;16.63;100.00;99486.28;4985889;28;20030;-79
2023/06/19 07:28:12;;;;;;;5.05;2.00;;;;;;;16.92;100.00;99492.19;4973668;28;20022;-80
2023/06/19 07:30:39;;;;;;;6.22;2.15;;;;;;;17.11;100.00;99489.69;4988383;28;20530;-80
2023/06/19 07:33:05;;;;;;;5.85;1.88;;;;;;;17.32;100.00;99493.09;4967870;28;20077;-79
2023/06/19 07:35:31;;;;;;;11.38;2.10;;;;;;;17.46;100.00;99491.16;4974389;28;20034;-79
2023/06/19 07:37:57;;;;;;;4.75;1.92;;;;;;;17.60;100.00;99487.41;4969322;28;20460;-79
2023/06/19 07:40:22;;;;;;;3.95;1.80;;;;;;;17.72;100.00;99490.22;4953714;28;20038;-80
2023/06/19 07:42:48;;;;;;;7.18;1.70;;;;;;;17.90;100.00;99491.31;4986420;28;20058;-80
2023/06/19 07:45:14;;;;;;;6.03;1.75;;;;;;;17.89;100.00;99496.88;4969219;28;20038;-81
2023/06/19 07:47:40;;;;;;;7.20;2.25;;;;;;;17.92;100.00;99488.41;4982303;28;20049;-79
2023/06/19 07:50:06;;;;;;;5.63;1.52;;;;;;;18.02;100.00;99486.09;4969299;28;20154;-79
2023/06/19 07:52:32;;;;;;;2.60;1.70;;;;;;;18.12;100.00;99490.16;5001623;28;20050;-79
2023/06/19 07:54:58;;;;;;;5.60;1.80;;;;;;;18.19;100.00;99482.91;4984321;28;20145;-77
2023/06/19 07:57:25;;;;;;;6.20;1.75;;;;;;;18.06;100.00;99481.13;4972666;28;20068;-79
2023/06/19 07:59:52;;;;;;;7.25;1.77;;;;;;;17.99;100.00;99497.22;4954375;28;20045;-78
2023/06/19 08:02:18;;;;;;;6.85;2.08;;;;;;;17.97;100.00;99489.44;4967207;28;20084;-79
2023/06/19 08:04:45;;;;;;;7.97;1.73;;;;;;;18.06;100.00;99487.28;4953331;28;20030;-79
2023/06/19 08:07:11;;;;;;;4.78;1.38;;;;;;;18.17;100.00;99482.31;4971305;28;20121;-79
2023/06/19 08:09:37;;;;;;;5.38;1.60;;;;;;;18.21;100.00;99483.50;4984238;28;20089;-79
2023/06/19 08:12:03;;;;;;;4.43;1.50;;;;;;;18.25;100.00;99481.22;4985198;28;20038;-83
2023/06/19 08:14:29;;;;;;;9.25;1.98;;;;;;;18.31;100.00;99485.69;4970840;28;20041;-83
2023/06/19 08:16:55;;;;;;;3.10;1.40;;;;;;;18.22;100.00;99483.28;4987719;28;20026;-79
2023/06/19 08:19:21;;;;;;;3.33;1.52;;;;;;;18.28;100.00;99478.94;4983128;28;20038;-79
2023/06/19 08:21:47;;;;;;;4.93;1.77;;;;;;;18.44;100.00;99484.75;4987932;28;20042;-79
2023/06/19 08:24:12;;;;;;;3.92;1.33;;;;;;;18.65;100.00;99488.06;4981654;28;20066;-79
2023/06/19 08:26:38;;;;;;;6.57;1.40;;;;;;;18.81;100.00;99479.44;4988360;28;20062;-79
2023/06/19 08:29:04;;;;;;;5.65;1.55;;;;;;;18.91;100.00;99480.75;4968371;28;21221;-80
2023/06/19 08:31:30;;;;;;;4.20;1.30;;;;;;;18.96;100.00;99478.25;4983495;28;20440;-79
2023/06/19 08:33:56;;;;;;;2.72;1.23;;;;;;;18.95;100.00;99472.06;4987382;28;20484;-83
2023/06/19 08:36:23;;;;;;;4.45;1.10;;;;;;;18.94;100.00;99472.28;4986276;28;20395;-85
2023/06/19 08:38:50;;;;;;;2.13;1.05;;;;;;;19.01;100.00;99467.69;4970809;28;20038;-80
2023/06/19 08:41:18;;;;;;;1.45;1.00;;;;;;;19.19;100.00;99474.09;4966748;28;20034;-80
2023/06/19 08:43:45;;;;;;;2.38;1.33;;;;;;;19.27;100.00;99465.72;4964371;28;20038;-79
2023/06/19 08:46:14;;;;;;;4.70;1.20;;;;;;;19.35;100.00;99475.31;4986445;28;20069;-78
2023/06/19 08:48:41;;;;;;;5.13;1.20;;;;;;;19.23;100.00;99477.13;4981851;28;20141;-78
2023/06/19 08:51:09;;;;;;;4.95;1.30;;;;;;;19.13;100.00;99481.16;4983258;28;20114;-80
2023/06/19 08:53:43;;;;;;;3.72;1.23;;;;;;;18.95;100.00;99481.97;5000350;28;20045;-77
2023/06/19 08:56:09;;;;;;;2.70;1.23;;;;;;;18.88;100.00;99482.03;4963508;28;20045;-79
2023/06/19 08:58:34;;;;;;;4.25;1.17;;;;;;;18.92;100.00;99477.84;4987546;28;20037;-85
2023/06/19 09:01:00;;;;;;;7.93;1.15;;;;;;;18.94;100.00;99477.63;4987242;28;20042;-83
2023/06/19 09:03:26;;;;;;;4.38;1.50;;;;;;;18.99;100.00;99477.78;4974507;28;20160;-85
2023/06/19 09:05:52;;;;;;;3.08;1.15;;;;;;;18.97;100.00;99480.69;5004416;28;20038;-84
2023/06/19 09:08:19;;;;;;;3.10;1.23;;;;;;;18.90;100.00;99481.81;4973991;28;20171;-83
2023/06/19 09:10:59;;;;;;;2.83;0.95;;;;;;;18.81;100.00;99489.31;4973725;28;20041;-84
2023/06/19 09:13:25;;;;;;;2.95;1.17;;;;;;;18.86;100.00;99491.34;4944609;28;20037;-80
2023/06/19 09:15:59;;;;;;;3.00;0.80;;;;;;;19.02;100.00;99482.69;4985562;28;20511;-79
2023/06/19 09:18:26;;;;;;;3.97;0.88;;;;;;;19.09;100.00;99480.81;4969467;28;20026;-79
2023/06/19 09:20:54;;;;;;;2.63;0.95;;;;;;;19.31;100.00;99484.84;5002895;28;20773;-79
2023/06/19 09:23:20;;;;;;;2.25;0.90;;;;;;;19.51;100.00;99479.22;4956154;28;20069;-80
2023/06/19 09:25:54;;;;;;;3.60;1.60;;;;;;;19.73;100.00;99470.69;4970473;28;20497;-79
2023/06/19 09:28:24;;;;;;;1.95;0.90;;;;;;;19.85;100.00;99468.00;4997223;28;20046;-79
2023/06/19 09:30:56;;;;;;;4.50;1.02;;;;;;;20.02;100.00;99475.41;4972527;28;20040;-80
2023/06/19 09:33:24;;;;;;;3.40;0.80;;;;;;;20.14;100.00;99476.25;4979955;28;20038;-80
2023/06/19 09:35:50;;;;;;;5.38;0.85;;;;;;;20.22;100.00;99469.72;4971328;28;20116;-80
2023/06/19 09:38:18;;;;;;;4.60;1.77;;;;;;;20.24;100.00;99478.38;4998101;28;20031;-86
2023/06/19 09:40:48;;;;;;;4.70;1.25;;;;;;;20.12;100.00;99474.81;4984820;28;20887;-82
2023/06/19 09:43:19;;;;;;;3.13;1.30;;;;;;;19.83;100.00;99483.50;5005237;28;20037;-79
2023/06/19 09:45:51;;;;;;;2.67;1.05;;;;;;;19.60;100.00;99479.72;4975297;28;20069;-79
2023/06/19 09:48:20;;;;;;;3.42;1.20;;;;;;;19.42;100.00;99475.22;4968964;28;20080;-79
2023/06/19 09:50:59;;;;;;;3.13;1.35;;;;;;;19.31;100.00;99474.97;4951091;28;20044;-80
2023/06/19 09:53:26;;;;;;;4.75;1.38;;;;;;;19.25;100.00;99475.03;4994351;28;20050;-81
2023/06/19 09:55:51;;;;;;;5.15;1.33;;;;;;;19.25;100.00;99477.72;4962487;28;20038;-79
2023/06/19 09:58:20;;;;;;;2.22;1.00;;;;;;;19.22;100.00;99473.63;4952976;28;20038;-79
2023/06/19 10:00:49;;;;;;;5.50;1.10;;;;;;;19.18;100.00;99469.75;4968227;28;20112;-80
2023/06/19 10:03:16;;;;;;;1.95;1.20;;;;;;;19.14;100.00;99474.78;4952658;28;20045;-80
2023/06/19 10:05:42;;;;;;;3.25;1.25;;;;;;;19.16;100.00;99466.50;4952368;28;20109;-80
2023/06/19 10:08:10;;;;;;;4.28;1.13;;;;;;;19.15;100.00;99475.56;4997867;28;20176;-85
2023/06/19 10:10:48;;;;;;;3.85;1.33;;;;;;;19.37;100.00;99475.91;5003070;28;20035;-84
2023/06/19 10:13:17;;;;;;;2.58;1.23;;;;;;;19.63;100.00;99465.88;4988067;28;20041;-84
2023/06/19 10:15:44;;;;;;;2.40;1.27;;;;;;;19.81;100.00;99464.97;4959434;28;20046;-84
2023/06/19 10:18:16;;;;;;;2.30;0.90;;;;;;;19.89;100.00;99465.69;4950494;28;20034;-80
2023/06/19 10:20:43;;;;;;;6.07;1.70;;;;;;;19.88;100.00;99458.66;4957580;28;25038;-79
2023/06/19 10:23:12;;;;;;;2.53;0.85;;;;;;;20.05;100.00;99459.66;4965346;28;20041;-79
2023/06/19 10:25:44;;;;;;;3.78;1.20;;;;;;;19.98;100.00;99463.47;4941182;28;20039;-79
2023/06/19 10:28:18;;;;;;;2.80;1.08;;;;;;;19.90;100.00;99464.63;4972620;28;20073;-83
2023/06/19 10:30:45;;;;;;;5.35;1.20;;;;;;;19.89;100.00;99469.16;4971626;28;20069;-84
2023/06/19 10:33:11;;;;;;;3.70;1.15;;;;;;;19.98;100.00;99458.13;4953667;28;20027;-79
2023/06/19 10:35:41;;;;;;;2.88;0.82;;;;;;;20.11;100.00;99463.31;4974054;28;20039;-79
2023/06/19 10:38:08;;;;;;;3.17;0.95;;;;;;;20.15;100.00;99463.63;4936650;28;20027;-79
2023/06/19 10:40:36;;;;;;;4.57;1.10;;;;;;;20.17;100.00;99456.19;4964039;28;20038;-79
2023/06/19 10:43:03;;;;;;;2.40;0.90;;;;;;;20.14;100.00;99459.31;4952878;28;20050;-79
2023/06/19 10:45:29;;;;;;;2.63;1.13;;;;;;;20.15;100.00;99458.28;4921826;28;20048;-81
2023/06/19 10:47:55;;;;;;;4.95;1.15;;;;;;;20.23;100.00;99460.63;4937381;28;20043;-78
2023/06/19 10:50:22;;;;;;;2.05;1.13;;;;;;;20.36;100.00;99459.56;4935620;28;20030;-79
2023/06/19 10:52:54;;;;;;;5.55;1.25;;;;;;;20.50;100.00;99467.38;4935381;28;20066;-80
2023/06/19 10:55:21;;;;;;;2.65;0.80;;;;;;;20.61;100.00;99458.50;4951178;28;20532;-79
2023/06/19 10:57:47;;;;;;;2.78;0.80;;;;;;;20.57;100.00;99460.03;4939345;28;20138;-79
2023/06/19 11:00:34;;;;;;;3.58;1.30;;;;;;;20.51;100.00;99461.78;4952683;28;20061;-79
2023/06/19 11:02:59;;;;;;;2.60;0.88;;;;;;;20.39;100.00;99461.78;4956235;28;20050;-85
2023/06/19 11:05:27;;;;;;;3.83;0.90;;;;;;;20.32;100.00;99455.72;4940933;28;20034;-86
2023/06/19 11:07:57;;;;;;;3.75;1.10;;;;;;;20.21;100.00;99457.34;4936240;28;20047;-80
2023/06/19 11:10:26;;;;;;;2.00;0.80;;;;;;;20.18;100.00;99455.94;4934601;28;20094;-80
2023/06/19 11:12:56;;;;;;;2.42;1.00;;;;;;;20.20;100.00;99453.03;4937047;28;20449;-81
2023/06/19 11:15:33;;;;;;;1.95;0.88;;;;;;;20.36;100.00;99440.78;4952460;28;20049;-81
2023/06/19 11:18:03;;;;;;;1.17;0.80;;;;;;;20.44;100.00;99443.13;4970538;28;20062;-80
2023/06/19 11:20:28;;;;;;;2.10;0.93;;;;;;;20.49;100.00;99445.09;4946413;28;20366;-79
2023/06/19 11:22:59;;;;;;;3.10;1.05;;;;;;;20.64;100.00;99438.44;4941986;28;20045;-79
2023/06/19 11:25:36;;;;;;;2.67;0.95;;;;;;;20.87;100.00;99440.22;4950183;28;20093;-78